Time;durP1;ratioP1;P1;durP2;ratioP2;P2;SDS_P1;SDS_P2;PMS_P1;PMS_P2;Temp;Humidity;BMP_temperature;BMP_pressure;BME280_temperature;BME280_humidity;BME280_pressure;Samples;Min_cycle;Max_cycle;Signal;HPM_P1;HPM_P2
2022/10/20 00:01:43;;;;;;;5.93;3.00;;;;;;;10.27;51.39;100665.41;7717656;32;37889;-73
2022/10/20 00:06:12;;;;;;;5.75;3.03;;;;;;;10.27;51.32;100673.56;7717823;32;39106;-74
2022/10/20 00:10:28;;;;;;;6.53;3.15;;;;;;;10.18;51.50;100688.69;7717366;32;40774;-74
2022/10/20 00:14:44;;;;;;;7.80;3.55;;;;;;;9.59;53.15;100689.84;7717396;32;38051;-73
2022/10/20 00:19:00;;;;;;;8.48;3.55;;;;;;;9.54;53.53;100693.28;7717229;32;37381;-73
2022/10/20 00:23:16;;;;;;;6.68;3.65;;;;;;;9.61;53.52;100701.31;7716574;32;39398;-73
2022/10/20 00:27:32;;;;;;;7.05;3.83;;;;;;;9.81;52.95;100700.84;7712921;32;39893;-74
2022/10/20 00:31:49;;;;;;;9.50;3.58;;;;;;;9.55;53.68;100694.09;7712164;32;38618;-74
2022/10/20 00:36:07;;;;;;;5.53;3.50;;;;;;;9.32;54.51;100695.00;7705837;32;37751;-73
2022/10/20 00:40:23;;;;;;;5.70;3.47;;;;;;;9.16;55.03;100693.88;7708004;32;38359;-74
2022/10/20 00:44:59;;;;;;;7.75;3.72;;;;;;;9.49;53.84;100693.19;7712289;32;39987;-73
2022/10/20 00:49:20;;;;;;;7.60;3.87;;;;;;;9.17;54.52;100701.78;7711171;32;39125;-74
2022/10/20 00:53:36;;;;;;;6.07;3.33;;;;;;;9.35;53.91;100703.53;7699088;32;37822;-73
2022/10/20 00:57:54;;;;;;;6.65;3.15;;;;;;;9.36;53.54;100699.72;7698235;32;39287;-73
2022/10/20 01:02:10;;;;;;;5.05;3.35;;;;;;;9.23;54.26;100702.72;7712023;32;40075;-73
2022/10/20 01:06:27;;;;;;;7.12;3.53;;;;;;;9.11;54.86;100702.75;7711790;32;37858;-73
2022/10/20 01:10:53;;;;;;;8.20;3.70;;;;;;;8.97;55.15;100702.19;7712051;32;37784;-73
2022/10/20 01:15:35;;;;;;;7.43;3.75;;;;;;;9.08;55.00;100694.25;7672265;32;39282;-74
2022/10/20 01:20:21;;;;;;;4.87;3.33;;;;;;;9.01;55.42;100697.09;7684981;32;39641;-74
2022/10/20 01:24:54;;;;;;;6.00;3.37;;;;;;;8.94;55.57;100693.69;7703556;32;37954;-73
2022/10/20 01:29:33;;;;;;;;;;;;;;;9.10;55.30;100694.81;7699209;32;37772;-73
2022/10/20 01:34:20;;;;;;;6.68;3.47;;;;;;;8.78;56.19;100698.78;7711556;32;39717;-74
2022/10/20 01:38:45;;;;;;;4.47;3.28;;;;;;;8.64;56.85;100700.91;7710570;32;40707;-73
2022/10/20 01:43:05;;;;;;;6.95;3.75;;;;;;;8.83;56.04;100704.34;7698074;32;38535;-73
2022/10/20 01:47:24;;;;;;;6.50;3.33;;;;;;;8.56;56.71;100703.97;7697645;32;36938;-73
2022/10/20 01:51:40;;;;;;;7.78;3.50;;;;;;;8.75;56.15;100706.59;7698182;32;40323;-74
2022/10/20 01:56:02;;;;;;;11.18;4.75;;;;;;;8.73;56.62;100693.22;7711649;32;41464;-74
2022/10/20 02:00:18;;;;;;;7.03;4.32;;;;;;;8.93;55.66;100692.00;7697931;32;37912;-74
2022/10/20 02:04:40;;;;;;;7.28;3.97;;;;;;;8.68;55.87;100689.56;7711080;32;37054;-72
2022/10/20 02:09:00;;;;;;;10.73;3.60;;;;;;;8.87;54.91;100691.09;7711390;32;40064;-73
2022/10/20 02:13:18;;;;;;;7.18;3.20;;;;;;;8.65;55.20;100699.84;7697642;32;40894;-74
2022/10/20 02:17:36;;;;;;;6.93;3.70;;;;;;;8.54;55.36;100703.41;7697550;32;37448;-73
2022/10/20 02:21:54;;;;;;;5.12;3.55;;;;;;;8.47;56.38;100713.56;7697213;32;37895;-71
2022/10/20 02:26:13;;;;;;;5.55;3.47;;;;;;;8.31;56.91;100704.16;7697674;32;39487;-74
2022/10/20 02:30:30;;;;;;;5.87;3.28;;;;;;;8.59;56.16;100708.13;7697688;32;39917;-73
2022/10/20 02:34:46;;;;;;;6.07;3.05;;;;;;;8.57;56.12;100713.81;7697183;32;37949;-72
2022/10/20 02:39:02;;;;;;;4.82;3.20;;;;;;;8.34;56.58;100711.03;7697383;32;37765;-74
2022/10/20 02:43:18;;;;;;;7.03;3.28;;;;;;;8.31;56.45;100716.91;7710712;32;39268;-74
2022/10/20 02:47:35;;;;;;;5.43;3.17;;;;;;;8.48;55.92;100709.75;7709267;32;40785;-74
2022/10/20 02:51:51;;;;;;;7.28;3.53;;;;;;;8.57;55.28;100708.37;7709505;32;37641;-74
2022/10/20 02:56:07;;;;;;;6.60;3.20;;;;;;;8.26;56.01;100714.91;7707598;32;36757;-73
2022/10/20 03:00:28;;;;;;;6.43;3.15;;;;;;;8.42;55.77;100718.84;7709167;32;39883;-72
2022/10/20 03:04:44;;;;;;;6.07;3.67;;;;;;;8.23;55.85;100718.91;7710426;32;40070;-73
2022/10/20 03:09:00;;;;;;;5.87;3.37;;;;;;;8.19;55.77;100720.47;7710250;32;38821;-73
2022/10/20 03:13:16;;;;;;;5.47;3.40;;;;;;;7.88;56.76;100716.09;7709828;32;38832;-73
2022/10/20 03:17:33;;;;;;;9.02;3.85;;;;;;;7.80;56.73;100728.13;7709758;32;38997;-73
2022/10/20 03:21:49;;;;;;;6.65;3.75;;;;;;;7.73;57.19;100730.12;7709780;32;39617;-73
2022/10/20 03:26:08;;;;;;;5.95;3.58;;;;;;;7.76;57.23;100734.25;7709911;32;37545;-73
2022/10/20 03:30:25;;;;;;;6.35;3.53;;;;;;;8.02;56.28;100738.47;7710016;32;37065;-73
2022/10/20 03:34:41;;;;;;;7.82;3.60;;;;;;;7.70;57.16;100730.56;7706930;32;40529;-73
2022/10/20 03:38:57;;;;;;;8.77;3.62;;;;;;;7.58;57.61;100733.22;7706304;32;40882;-73
2022/10/20 03:43:16;;;;;;;7.62;3.33;;;;;;;7.75;56.88;100741.56;7706353;32;38465;-73
2022/10/20 03:47:33;;;;;;;7.07;3.55;;;;;;;8.06;55.86;100745.09;7696844;32;36629;-73
2022/10/20 03:51:49;;;;;;;4.87;3.10;;;;;;;8.07;55.77;100738.59;7682762;32;39250;-74
2022/10/20 03:56:17;;;;;;;4.45;3.30;;;;;;;8.24;55.08;100736.03;7682721;32;39975;-74
2022/10/20 04:00:33;;;;;;;8.35;3.33;;;;;;;8.00;55.82;100748.72;7683322;32;37983;-73
2022/10/20 04:04:49;;;;;;;7.30;3.60;;;;;;;7.44;57.56;100751.56;7686105;32;37566;-73
2022/10/20 04:09:05;;;;;;;5.32;3.37;;;;;;;7.55;57.04;100741.00;7686182;32;40152;-73
2022/10/20 04:13:22;;;;;;;6.37;3.40;;;;;;;7.11;58.60;100744.63;7686082;32;39617;-74
2022/10/20 04:17:38;;;;;;;6.68;3.47;;;;;;;7.26;57.89;100746.13;7686038;32;37846;-75
2022/10/20 04:21:59;;;;;;;6.00;3.45;;;;;;;7.22;58.26;100744.94;7685876;32;38608;-74
2022/10/20 04:26:15;;;;;;;6.60;3.50;;;;;;;7.37;60.90;100736.44;7685914;32;40161;-74
2022/10/20 04:30:31;;;;;;;5.20;3.15;;;;;;;7.85;58.98;100750.00;7685859;32;40656;-74
2022/10/20 04:34:47;;;;;;;5.28;3.58;;;;;;;7.68;57.40;100738.13;7685676;32;37623;-86
2022/10/20 04:39:07;;;;;;;5.47;3.47;;;;;;;7.42;59.04;100737.41;7672124;32;37255;-73
2022/10/20 04:43:24;;;;;;;4.55;3.20;;;;;;;7.44;58.25;100738.00;7690685;32;39858;-73
2022/10/20 04:47:40;;;;;;;7.45;3.33;;;;;;;7.66;56.94;100741.06;7712347;32;40103;-73
2022/10/20 04:51:56;;;;;;;4.37;3.03;;;;;;;7.29;57.95;100741.09;7698324;32;37961;-73
2022/10/20 04:56:18;;;;;;;6.82;3.25;;;;;;;7.43;57.61;100739.03;7712205;32;37841;-73
2022/10/20 05:00:36;;;;;;;7.80;3.47;;;;;;;7.60;56.96;100738.44;7712209;32;38381;-73
2022/10/20 05:04:52;;;;;;;8.27;3.53;;;;;;;6.46;60.10;100746.94;7711937;32;40904;-74
2022/10/20 05:09:09;;;;;;;6.25;3.55;;;;;;;6.94;58.08;100754.41;7711934;32;37913;-73
2022/10/20 05:13:29;;;;;;;9.93;3.72;;;;;;;7.09;58.47;100754.06;7698332;32;37856;-75
2022/10/20 05:17:45;;;;;;;6.05;3.60;;;;;;;6.89;58.30;100756.97;7711813;32;39406;-74
2022/10/20 05:22:01;;;;;;;8.23;3.65;;;;;;;6.71;58.55;100772.16;7711816;32;39910;-78
2022/10/20 05:26:18;;;;;;;6.97;3.83;;;;;;;7.01;62.84;100767.91;7711684;32;37599;-73
2022/10/20 05:30:35;;;;;;;7.03;3.65;;;;;;;6.99;58.89;100773.56;7711749;32;37902;-73
2022/10/20 05:34:51;;;;;;;7.03;3.90;;;;;;;7.36;57.18;100768.13;7711889;32;39812;-72
2022/10/20 05:39:08;;;;;;;6.50;3.35;;;;;;;7.11;57.96;100771.75;7711829;32;39953;-73
2022/10/20 05:43:24;;;;;;;6.28;3.47;;;;;;;7.01;58.78;100782.28;7711727;32;37977;-72
2022/10/20 05:47:44;;;;;;;6.53;3.90;;;;;;;7.13;58.73;100782.37;7711597;32;36974;-79
2022/10/20 05:52:00;;;;;;;6.05;3.37;;;;;;;7.28;62.93;100795.59;7711824;32;40142;-79
2022/10/20 05:56:19;;;;;;;9.73;3.40;;;;;;;7.69;62.25;100786.75;7711580;32;40838;-75
2022/10/20 06:00:40;;;;;;;6.32;3.47;;;;;;;7.58;58.72;100792.94;7697852;32;36789;-75
2022/10/20 06:04:56;;;;;;;4.82;3.10;;;;;;;7.60;58.50;100798.12;7711151;32;37303;-75
2022/10/20 06:09:12;;;;;;;5.20;3.15;;;;;;;7.66;57.60;100799.94;7711517;32;39315;-75
2022/10/20 06:13:29;;;;;;;5.65;3.78;;;;;;;7.87;56.90;100802.16;7711469;32;39963;-75
2022/10/20 06:17:48;;;;;;;11.18;3.90;;;;;;;7.59;57.68;100807.31;7697850;32;37751;-76
2022/10/20 06:22:05;;;;;;;7.28;4.03;;;;;;;7.68;58.65;100824.97;7709214;32;37858;-76
2022/10/20 06:26:28;;;;;;;7.75;4.12;;;;;;;7.50;59.36;100834.78;7709961;32;39045;-75
2022/10/20 06:30:44;;;;;;;9.15;4.15;;;;;;;7.86;58.87;100837.69;7710756;32;39892;-76
2022/10/20 06:35:00;;;;;;;9.05;4.60;;;;;;;8.19;58.15;100837.25;7710728;32;38651;-75
2022/10/20 06:39:21;;;;;;;11.73;4.70;;;;;;;8.35;58.48;100826.81;7711111;32;37076;-75
2022/10/20 06:43:37;;;;;;;8.52;5.53;;;;;;;7.99;59.94;100842.12;7711032;32;39054;-75
2022/10/20 06:47:54;;;;;;;13.73;5.87;;;;;;;7.77;62.23;100853.47;7710772;32;39640;-75
2022/10/20 06:52:10;;;;;;;9.18;5.85;;;;;;;6.92;64.81;100860.37;7710777;32;38676;-76
2022/10/20 06:56:28;;;;;;;18.85;6.40;;;;;;;7.82;62.89;100859.03;7710906;32;37089;-75
2022/10/20 07:00:44;;;;;;;13.40;6.20;;;;;;;7.69;62.38;100856.47;7710694;32;40046;-75
2022/10/20 07:05:01;;;;;;;13.65;6.12;;;;;;;8.24;61.71;100866.44;7710458;32;40725;-76
2022/10/20 07:09:18;;;;;;;14.65;5.95;;;;;;;7.66;63.69;100870.53;7710447;32;38649;-76
2022/10/20 07:13:35;;;;;;;12.82;6.35;;;;;;;8.87;60.29;100875.19;7710387;32;38008;-76
2022/10/20 07:17:52;;;;;;;10.48;6.05;;;;;;;9.16;59.62;100873.44;7710351;32;39268;-76
2022/10/20 07:22:08;;;;;;;13.55;5.75;;;;;;;8.73;59.90;100867.22;7709969;32;40850;-76
2022/10/20 07:26:29;;;;;;;10.48;5.97;;;;;;;9.45;59.00;100871.66;7710028;32;37898;-76
2022/10/20 07:30:45;;;;;;;9.95;5.43;;;;;;;9.54;58.49;100870.22;7710120;32;37986;-76
2022/10/20 07:35:01;;;;;;;12.55;5.95;;;;;;;9.62;58.99;100874.47;7711039;32;39956;-75
2022/10/20 07:39:17;;;;;;;8.77;5.53;;;;;;;9.21;58.89;100876.28;7713251;32;39578;-75
2022/10/20 07:43:34;;;;;;;12.13;6.57;;;;;;;9.45;58.19;100860.78;7713094;32;37880;-75
2022/10/20 07:47:50;;;;;;;14.68;6.30;;;;;;;9.14;59.71;100876.38;7699465;32;37810;-75
2022/10/20 07:52:07;;;;;;;12.75;7.45;;;;;;;9.92;58.11;100866.12;7713104;32;39011;-75
2022/10/20 07:56:24;;;;;;;14.25;6.72;;;;;;;9.86;57.65;100864.34;7713112;32;40009;-75
2022/10/20 08:00:40;;;;;;;11.73;5.95;;;;;;;10.30;57.05;100861.97;7712876;32;37949;-75
2022/10/20 08:04:56;;;;;;;12.85;5.68;;;;;;;10.93;55.71;100859.25;7712870;32;37085;-75
2022/10/20 08:09:13;;;;;;;10.65;5.50;;;;;;;10.69;56.46;100869.50;7712812;32;40323;-75
2022/10/20 08:13:30;;;;;;;11.65;5.37;;;;;;;10.77;55.26;100871.00;7712768;32;40197;-75
2022/10/20 08:17:46;;;;;;;9.27;5.18;;;;;;;10.81;56.44;100872.97;7699396;32;38767;-76
2022/10/20 08:22:02;;;;;;;9.10;5.12;;;;;;;11.61;54.56;100865.47;7712576;32;37196;-76
2022/10/20 08:26:24;;;;;;;17.27;4.93;;;;;;;11.68;54.73;100870.75;7712638;32;40109;-76
2022/10/20 08:30:40;;;;;;;8.18;4.55;;;;;;;12.51;53.67;100856.16;7699065;32;40819;-75
2022/10/20 08:34:56;;;;;;;8.05;4.45;;;;;;;12.49;52.47;100861.88;7712425;32;38826;-76
2022/10/20 08:39:12;;;;;;;11.32;4.40;;;;;;;12.84;51.33;100859.72;7712490;32;37002;-75
2022/10/20 08:43:30;;;;;;;13.38;4.93;;;;;;;13.67;50.76;100854.53;7712421;32;39371;-75
2022/10/20 08:47:49;;;;;;;8.43;4.87;;;;;;;12.82;51.38;100864.63;7711752;32;40724;-75
2022/10/20 08:52:11;;;;;;;11.32;4.43;;;;;;;14.06;50.58;100859.66;7712365;32;37950;-77
2022/10/20 08:56:29;;;;;;;6.78;3.45;;;;;;;14.38;46.70;100863.31;7698927;32;37910;-77
2022/10/20 09:00:46;;;;;;;6.82;3.70;;;;;;;14.24;47.23;100869.28;7698661;32;40005;-76
2022/10/20 09:05:03;;;;;;;6.60;3.45;;;;;;;14.36;47.18;100862.75;7712123;32;40425;-75
2022/10/20 09:09:21;;;;;;;5.37;3.75;;;;;;;15.27;45.87;100854.84;7698338;32;37803;-75
2022/10/20 09:13:38;;;;;;;6.47;3.12;;;;;;;15.25;45.91;100846.91;7698726;32;36978;-75
2022/10/20 09:17:59;;;;;;;8.07;3.05;;;;;;;14.58;45.72;100855.13;7712194;32;40192;-75
2022/10/20 09:22:15;;;;;;;7.47;3.60;;;;;;;15.37;43.89;100860.34;7698442;32;40106;-75
2022/10/20 09:26:39;;;;;;;5.37;2.80;;;;;;;15.19;43.19;100858.97;7698300;32;38516;-76
2022/10/20 09:31:42;;;;;;;4.85;2.80;;;;;;;16.06;42.46;100856.00;7711193;32;38088;-76
2022/10/20 09:36:10;;;;;;;4.85;3.00;;;;;;;16.33;40.50;100857.50;7709777;32;39498;-76
2022/10/20 09:40:27;;;;;;;5.55;2.30;;;;;;;16.22;40.09;100859.50;7698976;32;40231;-75
2022/10/20 09:44:55;;;;;;;4.55;2.50;;;;;;;16.80;39.01;100864.34;7711673;32;38727;-75
2022/10/20 09:49:29;;;;;;;6.28;2.80;;;;;;;16.13;39.38;100858.44;7711789;32;36843;-75
2022/10/20 09:53:57;;;;;;;8.27;2.75;;;;;;;16.28;38.46;100865.78;7711805;32;38623;-75
2022/10/20 09:58:27;;;;;;;6.25;2.40;;;;;;;17.01;37.88;100858.69;7710450;32;40778;-75
2022/10/20 10:02:43;;;;;;;6.37;3.28;;;;;;;16.11;39.42;100858.72;7711692;32;37707;-75
2022/10/20 10:07:00;;;;;;;7.87;3.28;;;;;;;17.29;39.19;100856.22;7711506;32;37113;-75
2022/10/20 10:11:19;;;;;;;5.95;2.58;;;;;;;18.04;38.39;100841.88;7697942;32;40144;-75
2022/10/20 10:15:37;;;;;;;3.58;2.72;;;;;;;18.06;36.36;100836.03;7711369;32;40517;-75
2022/10/20 10:19:54;;;;;;;8.07;2.33;;;;;;;18.18;36.45;100831.75;7711084;32;37596;-75
2022/10/20 10:24:45;;;;;;;15.85;2.92;;;;;;;18.01;37.31;100837.75;7711292;32;37404;-76
2022/10/20 10:29:02;;;;;;;5.78;2.60;;;;;;;18.81;36.45;100818.62;7679053;32;39141;-77
2022/10/20 10:33:27;;;;;;;4.35;2.70;;;;;;;18.61;35.87;100821.72;7711101;32;40798;-75
2022/10/20 10:37:44;;;;;;;4.68;2.45;;;;;;;17.90;37.42;100816.97;7711085;32;36994;-75
2022/10/20 10:42:22;;;;;;;5.30;2.90;;;;;;;18.35;36.53;100814.66;7711073;32;37029;-75
2022/10/20 10:47:16;;;;;;;4.65;2.10;;;;;;;18.58;34.77;100801.88;7710876;32;40170;-75
2022/10/20 10:51:52;;;;;;;5.20;2.20;;;;;;;18.24;34.79;100804.88;7710913;32;40036;-75
2022/10/20 10:56:16;;;;;;;6.22;2.62;;;;;;;18.47;33.53;100794.03;7698221;32;37939;-75
2022/10/20 11:00:44;;;;;;;4.35;2.28;;;;;;;18.67;34.03;100788.19;7710873;32;37362;-75
2022/10/20 11:05:24;;;;;;;6.60;2.42;;;;;;;18.35;33.77;100778.78;7710666;32;39472;-75
2022/10/20 11:10:20;;;;;;;2.30;1.95;;;;;;;17.85;33.28;100781.16;7698323;32;40075;-74
2022/10/20 11:14:55;;;;;;;6.75;2.20;;;;;;;18.15;34.23;100770.81;7710396;32;38014;-74
2022/10/20 11:19:26;;;;;;;4.10;1.70;;;;;;;18.76;32.38;100761.53;7710285;32;37923;-75
2022/10/20 11:23:54;;;;;;;3.17;2.17;;;;;;;18.85;31.14;100760.84;7710374;32;39590;-75
2022/10/20 11:28:35;;;;;;;4.97;2.30;;;;;;;18.57;31.94;100766.28;7710015;32;39887;-75
2022/10/20 11:33:16;;;;;;;6.93;2.08;;;;;;;17.69;33.18;100757.62;7709835;32;37068;-76
2022/10/20 11:37:46;;;;;;;7.25;2.12;;;;;;;18.10;33.05;100746.06;7709934;32;37198;-75
2022/10/20 11:42:45;;;;;;;4.43;2.10;;;;;;;18.25;32.92;100736.69;7697399;32;39298;-75
2022/10/20 11:47:09;;;;;;;3.60;2.20;;;;;;;18.48;34.39;100740.47;7709480;32;40754;-75
2022/10/20 11:51:32;;;;;;;5.12;2.33;;;;;;;19.01;32.42;100729.06;7696323;32;37945;-75
2022/10/20 11:55:54;;;;;;;5.30;1.98;;;;;;;18.30;33.27;100720.91;7709412;32;37352;-78
2022/10/20 12:00:21;;;;;;;6.37;2.40;;;;;;;19.22;30.98;100725.91;7709173;32;39272;-75
2022/10/20 12:04:57;;;;;;;7.43;2.40;;;;;;;19.04;30.76;100717.41;7696381;32;40760;-75
2022/10/20 12:09:20;;;;;;;6.28;2.42;;;;;;;18.49;31.54;100720.84;7677993;32;37824;-75
2022/10/20 12:13:39;;;;;;;4.32;1.90;;;;;;;18.84;31.44;100703.97;7708855;32;37119;-80
2022/10/20 12:18:04;;;;;;;5.20;2.03;;;;;;;18.03;31.83;100718.84;7695238;32;39509;-77
2022/10/20 12:22:37;;;;;;;3.90;2.12;;;;;;;18.99;33.24;100703.69;7696296;32;40751;-75
2022/10/20 12:27:08;;;;;;;3.00;2.00;;;;;;;19.96;30.42;100700.00;7691417;32;38525;-78
2022/10/20 12:31:27;;;;;;;4.95;1.75;;;;;;;19.70;31.32;100684.75;7672642;32;37169;-81
2022/10/20 12:36:15;;;;;;;4.25;1.80;;;;;;;20.12;29.97;100689.34;7672529;32;39444;-82
2022/10/20 12:40:54;;;;;;;3.55;2.03;;;;;;;18.80;31.23;100689.09;7685833;32;40821;-80
2022/10/20 12:45:19;;;;;;;8.55;1.90;;;;;;;18.44;30.84;100695.25;7674546;32;38004;-79
2022/10/20 12:49:43;;;;;;;2.97;1.73;;;;;;;17.81;31.94;100683.53;7685685;32;36762;-80
2022/10/20 12:54:07;;;;;;;2.17;1.55;;;;;;;17.70;32.30;100674.59;7672837;32;38991;-83
2022/10/20 12:58:28;;;;;;;4.05;2.08;;;;;;;17.69;32.77;100675.72;7672931;32;39605;-82
2022/10/20 13:02:45;;;;;;;5.12;2.10;;;;;;;18.46;30.93;100666.22;7685386;32;37986;-81
2022/10/20 13:07:01;;;;;;;3.58;1.90;;;;;;;18.51;31.44;100659.81;7685266;32;37768;-81
2022/10/20 13:11:39;;;;;;;2.00;1.50;;;;;;;18.43;30.67;100654.97;7685265;32;39897;-80
2022/10/20 13:15:56;;;;;;;4.15;1.85;;;;;;;17.95;32.15;100654.09;7685142;32;39673;-82
2022/10/20 13:20:48;;;;;;;6.78;2.00;;;;;;;18.33;31.21;100653.22;7671406;32;37972;-80
2022/10/20 13:25:27;;;;;;;5.35;1.95;;;;;;;18.52;30.71;100655.91;7680786;32;37234;-81
2022/10/20 13:29:45;;;;;;;3.95;2.03;;;;;;;18.81;30.96;100654.84;7672950;32;39362;-77
2022/10/20 13:34:22;;;;;;;3.28;1.65;;;;;;;19.16;30.04;100647.78;7671733;32;39542;-81
2022/10/20 13:39:10;;;;;;;4.28;1.60;;;;;;;20.01;28.58;100648.09;7676053;32;37717;-80
2022/10/20 13:43:27;;;;;;;3.97;1.92;;;;;;;18.23;30.37;100657.00;7672989;32;35782;-81
2022/10/20 13:48:09;;;;;;;7.72;2.35;;;;;;;19.63;29.01;100658.66;7684916;32;39444;-82
2022/10/20 13:52:29;;;;;;;2.22;1.60;;;;;;;20.05;28.16;100645.50;7673448;32;40580;-80
2022/10/20 13:56:47;;;;;;;3.65;1.70;;;;;;;20.07;28.67;100648.78;7687311;32;37689;-83
2022/10/20 14:01:15;;;;;;;10.32;2.00;;;;;;;19.69;29.11;100643.56;7693243;32;36598;-82
2022/10/20 14:05:38;;;;;;;4.37;1.98;;;;;;;20.39;28.06;100650.47;7685249;32;39021;-82
2022/10/20 14:09:57;;;;;;;4.47;1.92;;;;;;;20.45;27.74;100640.06;7710829;32;40821;-83
2022/10/20 14:14:17;;;;;;;3.25;1.90;;;;;;;20.87;26.86;100637.00;7711057;32;37666;-82
2022/10/20 14:18:37;;;;;;;5.72;1.80;;;;;;;20.90;27.83;100628.06;7697080;32;37011;-83
2022/10/20 14:22:56;;;;;;;6.65;1.90;;;;;;;20.90;27.46;100631.62;7711359;32;39048;-83
2022/10/20 14:27:22;;;;;;;3.42;1.77;;;;;;;21.14;25.91;100625.66;7710589;32;40269;-84
2022/10/20 14:31:38;;;;;;;3.03;1.80;;;;;;;20.63;27.69;100629.94;7697459;32;38760;-84
2022/10/20 14:35:58;;;;;;;3.62;1.73;;;;;;;20.61;27.09;100632.12;7697042;32;36747;-85
2022/10/20 14:40:29;;;;;;;5.62;2.20;;;;;;;21.30;25.86;100630.75;7710556;32;39467;-84
2022/10/20 14:44:46;;;;;;;7.28;2.10;;;;;;;23.94;22.23;100617.25;7696826;32;40551;-84
2022/10/20 14:49:10;;;;;;;4.03;1.83;;;;;;;26.47;19.66;100604.38;7709681;32;38046;-84
2022/10/20 14:53:30;;;;;;;6.57;1.90;;;;;;;27.32;18.21;100598.44;7710907;32;37482;-84
2022/10/20 14:57:46;;;;;;;5.50;2.10;;;;;;;28.67;16.97;100598.69;7710480;32;40088;-83
2022/10/20 15:02:17;;;;;;;2.70;1.50;;;;;;;29.21;16.58;100583.47;7710245;32;40722;-83
2022/10/20 15:06:33;;;;;;;2.55;1.58;;;;;;;27.85;17.32;100589.53;7710204;32;37959;-83
2022/10/20 15:10:50;;;;;;;5.50;1.98;;;;;;;27.05;18.26;100589.03;7695976;32;37499;-84
2022/10/20 15:15:12;;;;;;;4.32;2.10;;;;;;;25.77;19.85;100597.28;7710376;32;39807;-84
2022/10/20 15:19:34;;;;;;;3.75;2.00;;;;;;;24.22;22.15;100597.16;7709646;32;39999;-83
2022/10/20 15:23:50;;;;;;;6.72;2.58;;;;;;;22.11;26.02;100599.59;7709664;32;38887;-83
2022/10/20 15:28:16;;;;;;;8.60;2.35;;;;;;;20.95;29.02;100605.72;7709405;32;37146;-81
2022/10/20 15:32:33;;;;;;;4.70;2.40;;;;;;;20.24;29.65;100607.38;7709324;32;39073;-81
2022/10/20 15:36:50;;;;;;;7.43;2.90;;;;;;;18.96;32.16;100604.81;7709676;32;39952;-79
2022/10/20 15:41:07;;;;;;;15.73;3.10;;;;;;;19.07;31.82;100603.47;7708624;32;38795;-77
2022/10/20 15:45:24;;;;;;;8.57;3.50;;;;;;;18.22;33.54;100599.34;7709493;32;37623;-77
2022/10/20 15:49:40;;;;;;;6.70;2.80;;;;;;;17.92;33.29;100605.06;7708444;32;40082;-78
2022/10/20 15:53:57;;;;;;;4.28;2.67;;;;;;;17.91;33.60;100608.12;7694951;32;40657;-78
2022/10/20 15:58:13;;;;;;;6.12;2.80;;;;;;;17.53;34.11;100605.38;7710799;32;38216;-79
2022/10/20 16:02:29;;;;;;;7.45;3.10;;;;;;;17.21;34.15;100607.78;7698340;32;37559;-78
2022/10/20 16:06:46;;;;;;;10.45;4.18;;;;;;;16.77;34.04;100614.34;7712865;32;39933;-81
2022/10/20 16:11:02;;;;;;;13.00;4.28;;;;;;;16.22;35.63;100617.38;7712086;32;40842;-78
2022/10/20 16:15:19;;;;;;;16.30;4.10;;;;;;;16.08;37.33;100620.00;7712128;32;38727;-78
2022/10/20 16:19:35;;;;;;;6.55;2.75;;;;;;;15.91;37.88;100622.34;7711858;32;37473;-78
2022/10/20 16:23:51;;;;;;;13.02;2.80;;;;;;;15.21;39.37;100626.03;7712167;32;39406;-77
2022/10/20 16:28:07;;;;;;;4.45;2.35;;;;;;;14.92;40.17;100628.62;7711894;32;39994;-77
2022/10/20 16:32:24;;;;;;;5.25;2.75;;;;;;;14.86;40.00;100627.84;7711755;32;37660;-77
2022/10/20 16:36:40;;;;;;;10.43;2.78;;;;;;;14.53;41.09;100632.03;7712479;32;37926;-78
2022/10/20 16:41:01;;;;;;;8.32;2.80;;;;;;;14.12;42.06;100635.62;7711937;32;39706;-78
2022/10/20 16:45:17;;;;;;;7.68;2.83;;;;;;;14.15;41.92;100626.87;7712043;32;39014;-76
2022/10/20 16:49:33;;;;;;;13.02;3.17;;;;;;;14.09;41.98;100638.94;7711845;32;38112;-78
2022/10/20 16:53:49;;;;;;;8.48;2.72;;;;;;;13.89;42.52;100637.03;7711617;32;37122;-76
2022/10/20 16:58:06;;;;;;;8.52;2.72;;;;;;;14.02;42.16;100631.00;7711948;32;39836;-77
2022/10/20 17:02:23;;;;;;;4.18;2.42;;;;;;;13.78;42.68;100636.19;7711820;32;39993;-77
2022/10/20 17:06:39;;;;;;;7.82;2.17;;;;;;;13.37;43.62;100644.34;7711363;32;38272;-76
2022/10/20 17:11:04;;;;;;;4.28;2.30;;;;;;;13.21;44.05;100639.84;7711496;32;37119;-78
2022/10/20 17:15:21;;;;;;;3.85;2.42;;;;;;;13.06;44.38;100643.38;7711745;32;39359;-73
2022/10/20 17:19:39;;;;;;;6.85;3.87;;;;;;;13.12;44.44;100640.41;7711371;32;39900;-75
2022/10/20 17:23:56;;;;;;;7.62;3.17;;;;;;;13.10;44.59;100650.75;7711135;32;38450;-76
2022/10/20 17:28:12;;;;;;;7.85;2.75;;;;;;;13.08;44.46;100654.88;7711730;32;37097;-76
2022/10/20 17:32:28;;;;;;;4.90;2.87;;;;;;;13.03;44.46;100660.31;7711586;32;40261;-76
2022/10/20 17:36:44;;;;;;;6.32;2.15;;;;;;;13.04;44.77;100661.97;7711312;32;39903;-76
2022/10/20 17:41:06;;;;;;;7.10;2.65;;;;;;;12.77;45.01;100662.94;7710899;32;38630;-75
2022/10/20 17:45:22;;;;;;;3.55;2.40;;;;;;;12.66;45.34;100664.78;7711491;32;37441;-75
2022/10/20 17:49:38;;;;;;;8.30;3.80;;;;;;;12.70;45.33;100671.37;7709189;32;39498;-75
2022/10/20 17:53:56;;;;;;;11.85;5.90;;;;;;;12.37;46.48;100665.13;7710206;32;39865;-73
2022/10/20 17:58:13;;;;;;;9.40;3.87;;;;;;;12.05;48.70;100667.06;7711250;32;37930;-74
2022/10/20 18:02:29;;;;;;;5.03;2.50;;;;;;;12.09;47.09;100662.72;7710956;32;37847;-75
2022/10/20 18:06:45;;;;;;;14.13;5.87;;;;;;;12.37;46.06;100654.19;7702133;32;300379;-74
2022/10/20 18:11:05;;;;;;;8.90;4.12;;;;;;;12.34;46.51;100645.69;7711385;32;39680;-74
2022/10/20 18:15:22;;;;;;;14.23;6.25;;;;;;;12.21;47.80;100656.00;7697592;32;38591;-74
2022/10/20 18:19:39;;;;;;;12.80;7.05;;;;;;;11.96;49.29;100647.59;7710395;32;37371;-76
2022/10/20 18:23:57;;;;;;;15.43;6.87;;;;;;;11.67;51.72;100650.56;7710768;32;39599;-75
2022/10/20 18:28:17;;;;;;;17.10;8.00;;;;;;;11.53;51.15;100646.59;7710576;32;39688;-75
2022/10/20 18:32:35;;;;;;;11.75;5.45;;;;;;;11.85;49.90;100641.19;7710892;32;38423;-76
2022/10/20 18:36:55;;;;;;;10.45;6.35;;;;;;;11.48;49.69;100641.91;7710575;32;36892;-74
2022/10/20 18:41:19;;;;;;;23.05;12.77;;;;;;;11.45;49.67;100650.59;7710770;32;40141;-75
2022/10/20 18:45:36;;;;;;;20.83;11.50;;;;;;;11.41;50.09;100652.22;7710933;32;39960;-75
2022/10/20 18:49:52;;;;;;;19.92;11.63;;;;;;;11.37;50.74;100640.97;7691618;32;38058;-75
2022/10/20 18:54:08;;;;;;;24.58;13.02;;;;;;;11.12;51.07;100646.97;7680400;32;37925;-74
2022/10/20 18:58:25;;;;;;;20.37;9.50;;;;;;;11.27;50.32;100647.16;7708689;32;39411;-75
2022/10/20 19:02:42;;;;;;;17.90;9.55;;;;;;;11.26;50.50;100652.84;7695416;32;41075;-75
2022/10/20 19:06:58;;;;;;;16.98;7.22;;;;;;;10.82;51.88;100656.41;7686178;32;38046;-75
2022/10/20 19:11:15;;;;;;;13.65;7.20;;;;;;;11.05;50.86;100649.06;7683198;32;38183;-74
2022/10/20 19:15:31;;;;;;;11.85;6.53;;;;;;;10.82;51.78;100648.22;7682438;32;40451;-76
2022/10/20 19:19:48;;;;;;;15.80;8.88;;;;;;;10.76;51.76;100654.69;7683090;32;39677;-74
2022/10/20 19:24:10;;;;;;;8.95;4.62;;;;;;;10.48;53.37;100652.94;7694434;32;39036;-75
2022/10/20 19:28:29;;;;;;;13.15;4.95;;;;;;;10.73;51.50;100657.94;7709185;32;37866;-74
2022/10/20 19:32:50;;;;;;;11.25;6.75;;;;;;;10.59;51.92;100664.81;7711806;32;39048;-75
2022/10/20 19:37:07;;;;;;;12.48;5.70;;;;;;;10.46;52.97;100650.44;7712143;32;40015;-76
2022/10/20 19:41:25;;;;;;;12.75;6.50;;;;;;;10.48;52.32;100655.66;7712647;32;37897;-73
2022/10/20 19:45:41;;;;;;;12.77;5.40;;;;;;;10.17;53.20;100655.16;7711755;32;37049;-75
2022/10/20 19:50:04;;;;;;;11.18;5.03;;;;;;;10.21;53.61;100653.59;7712320;32;40175;-75
2022/10/20 19:54:21;;;;;;;16.20;7.80;;;;;;;10.25;53.09;100646.56;7711453;32;40771;-73
2022/10/20 19:58:38;;;;;;;18.42;9.00;;;;;;;10.20;54.13;100653.84;7712267;32;38063;-73
2022/10/20 20:03:01;;;;;;;14.25;6.72;;;;;;;10.02;56.52;100639.41;7712449;32;37994;-73
2022/10/20 20:07:17;;;;;;;17.80;8.68;;;;;;;10.22;54.32;100648.97;7711567;32;39399;-73
2022/10/20 20:11:36;;;;;;;11.98;6.35;;;;;;;10.15;54.91;100649.94;7710626;32;39806;-73
2022/10/20 20:15:52;;;;;;;10.20;5.75;;;;;;;10.19;53.32;100654.91;7712686;32;38733;-74